Time;durP1;ratioP1;P1;durP2;ratioP2;P2;SDS_P1;SDS_P2;PMS_P1;PMS_P2;Temp;Humidity;BMP_temperature;BMP_pressure;BME280_temperature;BME280_humidity;BME280_pressure;Samples;Min_cycle;Max_cycle;Signal;HPM_P1;HPM_P2
2023/10/05 04:55:45;;;;;;;2.40;0.93;;;14.30;99.90;;;;;;4250636;23;20264;-75
2023/10/05 04:58:31;;;;;;;2.83;0.90;;;14.30;99.90;;;;;;5015888;28;20205;-69
2023/10/05 05:01:15;;;;;;;5.60;0.87;;;14.20;99.90;;;;;;5016293;28;20267;-70
2023/10/05 05:04:00;;;;;;;4.23;1.23;;;14.30;99.90;;;;;;5016173;28;20288;-72
2023/10/05 05:06:27;;;;;;;3.07;1.23;;;14.20;99.90;;;;;;5016134;28;20209;-71
2023/10/05 05:08:54;;;;;;;3.43;1.00;;;14.30;99.90;;;;;;5015857;28;20224;-71
2023/10/05 05:11:22;;;;;;;1.57;0.80;;;14.20;99.90;;;;;;5015892;28;20705;-72
2023/10/05 05:13:49;;;;;;;3.67;1.10;;;14.20;99.90;;;;;;5016183;28;20228;-70
2023/10/05 05:16:16;;;;;;;5.43;0.97;;;14.10;99.90;;;;;;5016221;28;20205;-70
2023/10/05 05:18:43;;;;;;;6.07;0.73;;;14.20;99.90;;;;;;5016147;28;20226;-74
2023/10/05 05:21:11;;;;;;;2.40;1.00;;;14.20;99.90;;;;;;5016316;28;20297;-70
2023/10/05 05:23:39;;;;;;;3.70;0.80;;;14.30;99.90;;;;;;5015897;28;20318;-72
2023/10/05 05:26:09;;;;;;;4.17;1.00;;;14.40;99.90;;;;;;5016121;28;20217;-72
2023/10/05 05:28:38;;;;;;;4.30;0.90;;;14.40;99.90;;;;;;5015971;28;20288;-70
2023/10/05 05:31:11;;;;;;;3.83;0.90;;;14.40;99.90;;;;;;5016102;28;20597;-70
2023/10/05 05:33:39;;;;;;;4.60;0.80;;;14.30;99.90;;;;;;5014624;28;20288;-70
2023/10/05 05:36:10;;;;;;;3.83;1.10;;;14.30;99.90;;;;;;5015327;28;20216;-70
2023/10/05 05:38:38;;;;;;;2.37;1.00;;;14.20;99.90;;;;;;5015530;28;20551;-68
2023/10/05 05:41:12;;;;;;;2.43;1.00;;;14.10;99.90;;;;;;5015651;28;20210;-69
2023/10/05 05:43:40;;;;;;;2.43;0.90;;;14.20;99.90;;;;;;5015654;28;20225;-69
2023/10/05 05:46:12;;;;;;;6.73;1.67;;;14.10;99.90;;;;;;5015094;28;20209;-70
2023/10/05 05:48:39;;;;;;;4.73;1.50;;;14.10;99.90;;;;;;5015160;28;20208;-72
2023/10/05 05:51:14;;;;;;;6.90;1.97;;;14.10;99.90;;;;;;5014340;28;20234;-69
2023/10/05 05:53:42;;;;;;;4.60;0.70;;;14.10;99.90;;;;;;5014779;28;20229;-71
2023/10/05 05:56:16;;;;;;;3.43;1.00;;;14.00;99.90;;;;;;5014928;28;20678;-70
2023/10/05 05:58:50;;;;;;;3.87;0.97;;;13.90;99.90;;;;;;5015067;28;20201;-68
2023/10/05 06:01:17;;;;;;;2.27;0.93;;;13.90;99.90;;;;;;5015054;28;20213;-69
2023/10/05 06:03:47;;;;;;;5.90;1.23;;;13.80;99.90;;;;;;5014810;28;20257;-68
2023/10/05 06:06:14;;;;;;;2.73;1.00;;;13.80;99.90;;;;;;5015070;28;20213;-68
2023/10/05 06:08:42;;;;;;;3.40;1.03;;;13.90;99.90;;;;;;5015392;28;20244;-69
2023/10/05 06:11:08;;;;;;;5.97;1.13;;;13.90;99.90;;;;;;5014836;28;20265;-69
2023/10/05 06:13:37;;;;;;;3.43;0.90;;;13.90;99.90;;;;;;5014995;28;20713;-69
2023/10/05 06:16:09;;;;;;;4.97;1.73;;;13.90;99.90;;;;;;5014920;28;20569;-68
2023/10/05 06:18:36;;;;;;;4.37;0.87;;;14.00;99.90;;;;;;5014990;28;20364;-69
2023/10/05 06:21:04;;;;;;;3.13;1.33;;;14.00;99.90;;;;;;5014887;28;20336;-69
2023/10/05 06:23:32;;;;;;;4.53;0.90;;;14.10;99.90;;;;;;5014825;28;20225;-69
2023/10/05 06:25:59;;;;;;;2.53;1.00;;;14.10;99.90;;;;;;5014438;28;20209;-70
2023/10/05 06:28:26;;;;;;;3.83;0.90;;;14.30;99.90;;;;;;5014336;28;20637;-74
2023/10/05 06:30:53;;;;;;;3.63;1.20;;;14.30;99.90;;;;;;5014610;28;20324;-72
2023/10/05 06:33:22;;;;;;;5.10;1.00;;;14.20;99.90;;;;;;5014696;28;20229;-71
2023/10/05 06:35:49;;;;;;;6.37;1.20;;;14.20;99.90;;;;;;5014487;28;20212;-71
2023/10/05 06:38:16;;;;;;;4.87;1.53;;;14.40;99.90;;;;;;5014519;28;20717;-70
2023/10/05 06:40:43;;;;;;;4.30;1.03;;;14.50;99.90;;;;;;5014367;28;20686;-69
2023/10/05 06:43:10;;;;;;;4.60;1.20;;;14.50;99.90;;;;;;5014279;28;20317;-69
2023/10/05 06:45:43;;;;;;;3.73;1.03;;;14.50;99.90;;;;;;5014192;28;20213;-73
2023/10/05 06:48:10;;;;;;;3.97;1.67;;;14.60;99.90;;;;;;5014045;28;20248;-71
2023/10/05 06:50:38;;;;;;;2.73;1.30;;;14.60;99.90;;;;;;5014234;28;20316;-69
2023/10/05 06:53:07;;;;;;;3.97;1.00;;;14.50;99.90;;;;;;5014145;28;20320;-69
2023/10/05 06:55:33;;;;;;;5.37;1.23;;;14.60;99.90;;;;;;5013940;28;20209;-71
2023/10/05 06:58:03;;;;;;;9.70;1.47;;;14.60;99.90;;;;;;5013983;28;20248;-71
2023/10/05 07:00:30;;;;;;;4.10;0.87;;;14.60;99.90;;;;;;5014524;28;20696;-71
2023/10/05 07:02:58;;;;;;;4.07;1.03;;;14.70;99.90;;;;;;5014169;28;20316;-69
2023/10/05 07:05:28;;;;;;;5.80;0.90;;;14.70;99.90;;;;;;5014059;28;20214;-70
2023/10/05 07:07:56;;;;;;;6.13;1.63;;;14.80;99.90;;;;;;5014060;28;20299;-71
2023/10/05 07:10:23;;;;;;;4.87;1.40;;;14.80;99.90;;;;;;5013674;28;20659;-69
2023/10/05 07:12:50;;;;;;;6.63;1.00;;;14.90;99.90;;;;;;5013628;28;20230;-71
2023/10/05 07:15:19;;;;;;;2.90;1.13;;;14.90;99.90;;;;;;5013718;28;20252;-69
2023/10/05 07:17:46;;;;;;;3.10;1.00;;;15.00;99.90;;;;;;5013396;28;20669;-70
2023/10/05 07:20:13;;;;;;;4.30;1.03;;;14.90;99.90;;;;;;5013480;28;20637;-73
2023/10/05 07:22:41;;;;;;;1.90;1.10;;;15.10;99.90;;;;;;5013352;28;20231;-72
2023/10/05 07:25:10;;;;;;;4.10;1.40;;;15.20;99.90;;;;;;5013252;28;20212;-72
2023/10/05 07:27:38;;;;;;;3.90;1.07;;;15.30;99.90;;;;;;5013628;28;20304;-73
2023/10/05 07:30:06;;;;;;;5.60;1.27;;;15.10;99.90;;;;;;5013327;28;20296;-71
2023/10/05 07:32:35;;;;;;;2.77;1.23;;;15.10;99.90;;;;;;5013439;28;20401;-76
2023/10/05 07:35:02;;;;;;;3.17;0.90;;;15.10;99.90;;;;;;5013616;28;20212;-76
2023/10/05 07:37:30;;;;;;;5.93;1.47;;;15.20;99.90;;;;;;5013987;28;20237;-76
2023/10/05 07:39:57;;;;;;;3.63;1.47;;;15.10;99.90;;;;;;5013866;28;20202;-76
2023/10/05 07:42:27;;;;;;;5.87;1.40;;;15.10;99.90;;;;;;5013775;28;20228;-76
2023/10/05 07:44:54;;;;;;;5.20;1.27;;;15.30;99.90;;;;;;5013783;28;20212;-76
2023/10/05 07:47:21;;;;;;;4.87;1.13;;;15.30;99.90;;;;;;5013553;28;20202;-76
2023/10/05 07:49:48;;;;;;;8.03;1.30;;;15.40;99.90;;;;;;5013473;28;20236;-75
2023/10/05 07:52:16;;;;;;;2.27;1.00;;;15.30;99.90;;;;;;5013368;28;20272;-75
2023/10/05 07:54:43;;;;;;;5.67;1.07;;;15.30;99.90;;;;;;5013494;28;20209;-76
2023/10/05 07:57:13;;;;;;;5.33;0.80;;;15.30;99.90;;;;;;5012484;28;20674;-76
2023/10/05 07:59:45;;;;;;;3.57;1.00;;;15.20;99.90;;;;;;5013355;28;20205;-76
2023/10/05 08:02:13;;;;;;;4.73;0.97;;;15.10;99.90;;;;;;5013104;28;20263;-76
2023/10/05 08:04:41;;;;;;;2.33;0.97;;;15.20;99.90;;;;;;5013098;28;20210;-73
2023/10/05 08:07:08;;;;;;;2.77;0.93;;;15.20;99.90;;;;;;5013414;28;20301;-76
2023/10/05 08:09:35;;;;;;;4.83;0.83;;;15.20;99.90;;;;;;5013062;28;20562;-76
2023/10/05 08:12:02;;;;;;;2.53;0.90;;;15.30;99.90;;;;;;5012705;28;20328;-76
2023/10/05 08:14:30;;;;;;;2.30;0.80;;;15.30;99.90;;;;;;5013480;28;20333;-76
2023/10/05 08:16:59;;;;;;;2.33;1.10;;;15.30;99.90;;;;;;5013106;28;20217;-77
2023/10/05 08:19:26;;;;;;;3.03;0.80;;;15.40;99.90;;;;;;5013309;28;20209;-76
2023/10/05 08:21:53;;;;;;;3.23;0.70;;;15.40;99.90;;;;;;5012934;28;20237;-76
2023/10/05 08:24:20;;;;;;;2.50;0.73;;;15.50;99.90;;;;;;5013271;28;20268;-76
2023/10/05 08:26:48;;;;;;;3.33;1.00;;;15.50;99.90;;;;;;5008176;28;20202;-74
2023/10/05 08:29:17;;;;;;;4.70;1.27;;;15.60;99.90;;;;;;5012449;28;20213;-77
2023/10/05 08:31:45;;;;;;;2.50;0.90;;;15.60;99.90;;;;;;5021971;28;20282;-72
2023/10/05 08:34:20;;;;;;;4.13;1.20;;;15.50;99.90;;;;;;4995751;28;20217;-73
2023/10/05 08:36:49;;;;;;;2.00;1.10;;;15.60;99.90;;;;;;5011395;28;20244;-72
2023/10/05 08:39:16;;;;;;;5.30;1.20;;;15.50;99.90;;;;;;5011292;28;20212;-72
2023/10/05 08:41:44;;;;;;;4.63;1.13;;;15.50;99.90;;;;;;5010344;28;20288;-75
2023/10/05 08:44:26;;;;;;;2.37;0.90;;;15.40;99.90;;;;;;5010327;28;20249;-74
2023/10/05 08:46:55;;;;;;;2.37;0.90;;;15.50;99.90;;;;;;5011251;28;20209;-74
2023/10/05 08:49:24;;;;;;;3.00;1.50;;;15.60;99.90;;;;;;5011552;28;20684;-74
2023/10/05 08:51:52;;;;;;;2.57;1.00;;;15.70;99.90;;;;;;5011029;28;20228;-73
2023/10/05 08:54:27;;;;;;;4.07;1.00;;;15.80;99.90;;;;;;5011495;28;20216;-74
2023/10/05 08:56:57;;;;;;;4.33;0.80;;;15.90;99.90;;;;;;5011138;28;20217;-73
2023/10/05 08:59:26;;;;;;;5.43;1.20;;;16.10;99.90;;;;;;5011004;28;20237;-71
2023/10/05 09:01:59;;;;;;;4.47;0.70;;;16.00;99.90;;;;;;5010700;28;20284;-73
2023/10/05 09:04:43;;;;;;;4.70;1.30;;;16.00;99.90;;;;;;5011196;28;20212;-75
2023/10/05 09:07:16;;;;;;;3.20;1.00;;;16.10;99.90;;;;;;5010909;28;20237;-72
2023/10/05 09:09:54;;;;;;;2.70;1.00;;;16.10;99.90;;;;;;5014539;28;20259;-68
2023/10/05 09:12:32;;;;;;;2.30;0.67;;;16.20;99.90;;;;;;5014481;28;20240;-68
2023/10/05 09:15:18;;;;;;;3.50;1.00;;;16.20;99.90;;;;;;5014232;28;20296;-74
2023/10/05 09:18:17;;;;;;;5.37;1.23;;;16.30;99.90;;;;;;5014186;28;20213;-68
2023/10/05 09:20:48;;;;;;;3.17;1.20;;;16.30;99.90;;;;;;5014042;28;20213;-69
2023/10/05 09:23:20;;;;;;;3.10;0.93;;;16.30;99.90;;;;;;5033736;28;20235;-70
2023/10/05 09:25:48;;;;;;;1.67;0.87;;;16.30;99.90;;;;;;5013390;28;20205;-71
2023/10/05 09:28:35;;;;;;;2.00;0.80;;;16.30;99.90;;;;;;5014172;28;20212;-71
2023/10/05 09:31:07;;;;;;;4.43;0.80;;;16.20;99.90;;;;;;5013841;28;20229;-72
2023/10/05 09:33:34;;;;;;;3.40;1.10;;;16.30;99.90;;;;;;5014020;28;20320;-73
2023/10/05 09:36:16;;;;;;;4.17;1.00;;;16.30;99.90;;;;;;5015152;28;20208;-79
2023/10/05 09:38:46;;;;;;;4.97;1.03;;;16.30;99.90;;;;;;5015612;28;20216;-80
2023/10/05 09:41:17;;;;;;;4.07;1.10;;;16.30;99.90;;;;;;5015554;28;20686;-79
2023/10/05 09:43:45;;;;;;;2.73;0.73;;;16.50;99.90;;;;;;5015559;28;20698;-78
2023/10/05 09:46:14;;;;;;;5.40;1.20;;;16.50;99.90;;;;;;5015727;28;20233;-77
2023/10/05 09:48:42;;;;;;;3.77;1.07;;;16.50;99.90;;;;;;5015863;28;20205;-80
2023/10/05 09:51:13;;;;;;;3.03;1.00;;;16.60;99.90;;;;;;5015173;28;20657;-78
2023/10/05 09:53:43;;;;;;;4.03;1.63;;;16.50;99.90;;;;;;5021922;28;20233;-77
2023/10/05 09:56:12;;;;;;;3.77;1.60;;;16.60;99.90;;;;;;5022655;28;20237;-73
2023/10/05 09:58:40;;;;;;;2.47;0.83;;;16.70;99.90;;;;;;5023324;28;20260;-77
2023/10/05 10:01:20;;;;;;;5.73;1.17;;;16.70;99.90;;;;;;5017394;28;20753;-76
2023/10/05 10:03:47;;;;;;;5.20;1.10;;;16.70;99.90;;;;;;5016800;28;20276;-79
2023/10/05 10:06:20;;;;;;;2.80;0.90;;;16.80;99.90;;;;;;5015246;28;20213;-79
2023/10/05 10:08:54;;;;;;;3.40;1.10;;;16.80;99.90;;;;;;5014784;28;20332;-77
2023/10/05 10:11:24;;;;;;;2.57;1.10;;;16.80;99.90;;;;;;5014914;28;20237;-79
2023/10/05 10:14:00;;;;;;;4.57;1.20;;;17.00;99.90;;;;;;5014462;28;20226;-79
2023/10/05 10:16:29;;;;;;;2.03;0.90;;;17.00;99.90;;;;;;5015560;28;20658;-73
2023/10/05 10:19:03;;;;;;;5.30;1.90;;;17.20;99.90;;;;;;5025303;28;20229;-80
2023/10/05 10:21:36;;;;;;;4.17;1.27;;;17.40;99.90;;;;;;5014093;28;20293;-79
2023/10/05 10:24:06;;;;;;;2.77;0.90;;;17.60;99.90;;;;;;5014396;28;20296;-76
2023/10/05 10:26:40;;;;;;;4.55;1.30;;;17.80;99.90;;;;;;5013735;28;20209;-80
2023/10/05 10:29:11;;;;;;;3.80;1.00;;;17.80;99.90;;;;;;5014624;28;20296;-78
2023/10/05 10:31:48;;;;;;;3.17;0.65;;;17.90;99.90;;;;;;5015362;28;20276;-80
2023/10/05 10:34:41;;;;;;;3.73;1.07;;;17.90;99.90;;;;;;5014889;28;20212;-77
2023/10/05 10:37:11;;;;;;;3.25;0.98;;;18.00;99.90;;;;;;5014617;28;20256;-80
2023/10/05 10:39:38;;;;;;;4.45;0.80;;;18.00;99.90;;;;;;5015923;28;20205;-80
2023/10/05 10:42:07;;;;;;;3.08;1.08;;;18.10;99.90;;;;;;5014415;28;20236;-80
2023/10/05 10:44:57;;;;;;;6.43;1.00;;;18.10;99.90;;;;;;5014578;28;20233;-80
2023/10/05 10:47:26;;;;;;;7.43;2.50;;;18.10;99.90;;;;;;5014077;28;20609;-75
2023/10/05 10:50:11;;;;;;;2.08;0.90;;;18.30;99.90;;;;;;5014268;28;20205;-75
2023/10/05 10:52:40;;;;;;;2.08;0.98;;;18.40;99.90;;;;;;5014586;28;20633;-75
2023/10/05 10:55:14;;;;;;;3.67;0.77;;;18.50;99.90;;;;;;5013649;28;20241;-76
2023/10/05 10:57:44;;;;;;;4.35;1.00;;;18.50;99.90;;;;;;5013869;28;20219;-76
2023/10/05 11:03:11;;;;;;;4.25;0.77;;;18.80;99.90;;;;;;4979281;28;20264;-73
2023/10/05 11:05:39;;;;;;;2.83;0.65;;;18.90;99.90;;;;;;5014322;28;20205;-74
2023/10/05 11:08:10;;;;;;;6.53;1.23;;;18.90;99.90;;;;;;5013785;28;20202;-76
2023/10/05 11:10:40;;;;;;;1.92;0.82;;;18.70;99.90;;;;;;5013604;28;20235;-78
2023/10/05 11:13:14;;;;;;;3.45;0.88;;;18.60;99.90;;;;;;5013664;28;20705;-74
2023/10/05 11:15:57;;;;;;;2.60;0.80;;;18.60;99.90;;;;;;5013333;28;20291;-73
2023/10/05 11:18:26;;;;;;;6.80;0.95;;;18.70;99.90;;;;;;5015653;28;20287;-73
2023/10/05 11:20:53;;;;;;;4.05;1.10;;;18.60;99.90;;;;;;5014040;28;20691;-73
2023/10/05 11:23:25;;;;;;;4.18;1.23;;;18.70;99.90;;;;;;5014113;28;20226;-75
2023/10/05 11:26:03;;;;;;;5.75;1.20;;;18.60;99.90;;;;;;5015168;28;20216;-73
2023/10/05 11:28:31;;;;;;;2.53;0.75;;;18.80;99.90;;;;;;5014380;28;20201;-76
2023/10/05 11:30:59;;;;;;;2.70;0.85;;;18.90;99.90;;;;;;5014648;28;20237;-78
2023/10/05 11:33:34;;;;;;;3.03;0.80;;;18.90;99.90;;;;;;5013672;28;20324;-77
2023/10/05 11:36:17;;;;;;;2.20;0.82;;;18.90;99.90;;;;;;5014970;28;20205;-79
2023/10/05 11:38:45;;;;;;;3.95;0.68;;;19.00;99.90;;;;;;5016130;28;20672;-78
2023/10/05 11:41:16;;;;;;;3.88;0.93;;;19.00;99.90;;;;;;5013687;28;20558;-72
2023/10/05 11:43:44;;;;;;;3.53;0.93;;;19.10;99.90;;;;;;5013585;28;20283;-72
2023/10/05 11:46:17;;;;;;;1.08;0.65;;;19.20;99.90;;;;;;5013782;28;20212;-75
2023/10/05 11:48:50;;;;;;;2.53;0.70;;;19.20;99.90;;;;;;5014091;28;20255;-75
2023/10/05 11:51:19;;;;;;;2.15;0.80;;;19.10;99.90;;;;;;5013143;28;20206;-73
2023/10/05 11:53:50;;;;;;;1.98;0.68;;;19.10;99.90;;;;;;5012718;28;20257;-74
2023/10/05 11:56:17;;;;;;;3.13;0.90;;;19.10;99.90;;;;;;5012542;28;20225;-73
2023/10/05 11:58:47;;;;;;;2.00;0.85;;;19.00;99.90;;;;;;5012888;28;20244;-74
2023/10/05 12:01:17;;;;;;;3.22;0.82;;;19.10;99.90;;;;;;5012957;28;20214;-73
2023/10/05 12:03:45;;;;;;;2.17;0.70;;;19.20;99.90;;;;;;5007441;28;20699;-71
2023/10/05 12:06:12;;;;;;;4.38;1.10;;;19.30;99.90;;;;;;5012562;28;20212;-70
2023/10/05 12:08:41;;;;;;;3.80;1.00;;;19.20;99.90;;;;;;5013132;28;20201;-69
2023/10/05 12:11:13;;;;;;;3.30;0.82;;;19.20;99.90;;;;;;5012943;28;20201;-74
2023/10/05 12:13:40;;;;;;;6.05;0.95;;;19.20;99.90;;;;;;5012936;28;20686;-74
2023/10/05 12:16:11;;;;;;;1.65;0.80;;;19.20;99.90;;;;;;5012863;28;20241;-69
2023/10/05 12:18:41;;;;;;;3.90;0.98;;;19.20;99.90;;;;;;5012512;28;20213;-71
2023/10/05 12:21:10;;;;;;;2.40;0.63;;;19.30;99.90;;;;;;5013030;28;20201;-71
2023/10/05 12:23:37;;;;;;;2.63;0.75;;;19.20;99.90;;;;;;5019942;28;20763;-68
2023/10/05 12:26:10;;;;;;;3.15;0.80;;;19.30;99.90;;;;;;5032764;28;20284;-71
2023/10/05 12:28:40;;;;;;;1.70;0.68;;;19.50;99.90;;;;;;5017867;28;20628;-72
2023/10/05 12:31:09;;;;;;;3.00;0.80;;;19.50;99.90;;;;;;5011445;28;20209;-74
2023/10/05 12:33:39;;;;;;;3.10;0.70;;;19.40;99.90;;;;;;5011280;28;20340;-76
2023/10/05 12:36:08;;;;;;;3.33;0.60;;;19.50;99.90;;;;;;5009401;28;20605;-70
2023/10/05 12:38:35;;;;;;;5.82;0.70;;;19.40;99.90;;;;;;5007936;28;20210;-73
2023/10/05 12:41:12;;;;;;;1.40;0.63;;;19.30;99.90;;;;;;5010766;28;20201;-72
2023/10/05 12:43:42;;;;;;;0.70;0.47;;;19.20;99.90;;;;;;5012980;28;20225;-76
2023/10/05 12:46:10;;;;;;;1.83;0.50;;;19.30;99.90;;;;;;5015245;28;20218;-69
2023/10/05 12:48:38;;;;;;;2.88;0.63;;;19.40;99.90;;;;;;5011771;28;20271;-70
2023/10/05 12:51:07;;;;;;;1.55;0.60;;;19.20;99.90;;;;;;5015560;28;20213;-74
2023/10/05 12:53:34;;;;;;;1.02;0.60;;;19.20;99.90;;;;;;5015065;28;20230;-74
2023/10/05 12:56:01;;;;;;;2.80;0.80;;;19.20;99.90;;;;;;5015056;28;20214;-71
2023/10/05 12:58:29;;;;;;;3.20;0.70;;;19.30;99.90;;;;;;5018415;28;20654;-71
2023/10/05 13:01:07;;;;;;;1.63;0.77;;;19.30;99.90;;;;;;5014109;28;20252;-72
2023/10/05 13:03:35;;;;;;;3.65;0.73;;;19.20;99.90;;;;;;5014856;28;20314;-76
2023/10/05 13:06:06;;;;;;;3.67;1.00;;;19.20;99.90;;;;;;5015032;28;20267;-75
2023/10/05 13:08:33;;;;;;;4.82;0.70;;;19.20;99.90;;;;;;5015063;28;20205;-69
2023/10/05 13:11:03;;;;;;;2.85;0.65;;;19.20;99.90;;;;;;5014406;28;20209;-76
2023/10/05 13:13:30;;;;;;;3.40;0.60;;;19.40;99.90;;;;;;5014012;28;20232;-72
2023/10/05 13:15:58;;;;;;;1.65;0.60;;;19.50;99.90;;;;;;5015058;28;20233;-75
2023/10/05 13:18:26;;;;;;;3.33;0.70;;;19.40;99.90;;;;;;5014923;28;20205;-76
2023/10/05 13:20:55;;;;;;;1.67;0.70;;;19.50;99.90;;;;;;5014494;28;20197;-68
2023/10/05 13:23:23;;;;;;;2.08;0.63;;;19.30;99.90;;;;;;5014628;28;20260;-74
2023/10/05 13:25:50;;;;;;;1.52;0.52;;;19.40;99.90;;;;;;5015564;28;20629;-76
2023/10/05 13:28:17;;;;;;;2.67;0.60;;;19.50;99.90;;;;;;5013599;28;20304;-74
2023/10/05 13:30:47;;;;;;;1.02;0.65;;;19.50;99.90;;;;;;5014736;28;20661;-72
2023/10/05 13:33:21;;;;;;;3.78;0.70;;;19.40;99.90;;;;;;5012174;28;20241;-77
2023/10/05 13:35:50;;;;;;;2.47;0.80;;;19.30;99.90;;;;;;5011084;28;20213;-75
2023/10/05 13:38:18;;;;;;;4.07;0.80;;;19.40;99.90;;;;;;5014304;28;20210;-71
2023/10/05 13:41:13;;;;;;;1.95;0.68;;;19.60;99.90;;;;;;5013261;28;20264;-77
2023/10/05 13:43:40;;;;;;;2.30;0.77;;;19.50;99.90;;;;;;5029405;28;20297;-74
2023/10/05 13:46:12;;;;;;;2.08;0.68;;;19.50;99.90;;;;;;5036011;28;20220;-71
2023/10/05 13:48:41;;;;;;;2.72;0.63;;;19.50;99.90;;;;;;5033704;28;20206;-71
2023/10/05 13:51:11;;;;;;;1.85;0.93;;;19.40;99.90;;;;;;5036438;28;20210;-74
2023/10/05 13:53:39;;;;;;;6.35;0.90;;;19.40;99.90;;;;;;5023878;28;20243;-83
2023/10/05 13:56:06;;;;;;;2.80;0.63;;;19.40;99.90;;;;;;5023100;28;20271;-75
2023/10/05 13:58:33;;;;;;;4.07;0.80;;;19.50;99.90;;;;;;5022932;28;20682;-79
2023/10/05 14:01:01;;;;;;;2.45;1.02;;;19.60;99.90;;;;;;5023554;28;20531;-74
2023/10/05 14:03:29;;;;;;;2.42;0.77;;;19.50;99.90;;;;;;5020292;28;20232;-82
2023/10/05 14:06:02;;;;;;;3.42;1.02;;;19.60;99.90;;;;;;5015244;28;20209;-75
2023/10/05 14:08:31;;;;;;;2.38;0.70;;;19.50;99.90;;;;;;5015897;28;20560;-82
2023/10/05 14:10:59;;;;;;;1.73;0.52;;;19.50;99.90;;;;;;5016022;28;20573;-77
2023/10/05 14:13:26;;;;;;;3.13;0.70;;;19.30;99.90;;;;;;5015916;28;20609;-82
2023/10/05 14:15:53;;;;;;;2.72;0.50;;;19.20;99.90;;;;;;5023511;28;20237;-79
2023/10/05 14:18:20;;;;;;;1.45;0.90;;;19.10;99.90;;;;;;5023042;28;20209;-75
2023/10/05 14:20:50;;;;;;;2.03;0.82;;;19.30;99.90;;;;;;5023546;28;20202;-70
2023/10/05 14:23:19;;;;;;;3.72;0.80;;;19.40;99.90;;;;;;5033079;28;20636;-81
2023/10/05 14:25:46;;;;;;;1.63;0.82;;;19.50;99.90;;;;;;5036283;28;20296;-81
2023/10/05 14:28:17;;;;;;;6.50;0.60;;;19.50;99.90;;;;;;5026920;28;20280;-80
2023/10/05 14:30:45;;;;;;;2.13;0.60;;;19.50;99.90;;;;;;5016922;28;20252;-80
2023/10/05 14:33:16;;;;;;;1.70;0.57;;;19.20;99.90;;;;;;5015440;28;20271;-81
2023/10/05 14:35:44;;;;;;;3.60;0.80;;;19.20;99.90;;;;;;5015113;28;20206;-83
2023/10/05 14:38:15;;;;;;;2.72;0.63;;;19.30;99.90;;;;;;5027095;28;20212;-80
2023/10/05 14:40:44;;;;;;;3.05;0.70;;;19.20;99.90;;;;;;5022527;28;20206;-83
2023/10/05 14:43:20;;;;;;;2.13;0.60;;;19.20;99.90;;;;;;5011471;28;20222;-79
2023/10/05 14:45:48;;;;;;;2.03;0.55;;;19.20;99.90;;;;;;5016352;28;20201;-82
2023/10/05 14:48:15;;;;;;;0.80;0.50;;;19.20;99.90;;;;;;5024690;28;20201;-81
2023/10/05 14:50:42;;;;;;;1.88;0.63;;;19.20;99.90;;;;;;5015636;28;20256;-83
2023/10/05 14:53:11;;;;;;;2.08;0.70;;;19.20;99.90;;;;;;5015930;28;20329;-83
2023/10/05 14:55:40;;;;;;;2.15;0.90;;;19.10;99.90;;;;;;5016505;28;20209;-79
2023/10/05 14:58:09;;;;;;;0.98;0.57;;;19.10;99.90;;;;;;5015632;28;20198;-84
2023/10/05 15:00:36;;;;;;;1.80;0.68;;;19.00;99.90;;;;;;5016282;28;20248;-82
2023/10/05 15:03:04;;;;;;;2.90;1.00;;;18.90;99.90;;;;;;5015018;28;20253;-77
2023/10/05 15:05:31;;;;;;;1.42;0.55;;;18.90;99.90;;;;;;5015168;28;20240;-82
2023/10/05 15:07:59;;;;;;;5.32;0.80;;;18.90;99.90;;;;;;5015806;28;20205;-83
2023/10/05 15:10:27;;;;;;;1.88;0.80;;;18.90;99.90;;;;;;5015884;28;20217;-80
2023/10/05 15:12:56;;;;;;;1.35;0.70;;;19.00;99.90;;;;;;5014290;28;20698;-83
2023/10/05 15:15:24;;;;;;;2.00;0.60;;;19.00;99.90;;;;;;5014916;28;20240;-79
2023/10/05 15:17:52;;;;;;;1.52;0.60;;;19.10;99.90;;;;;;5015078;28;20201;-83
2023/10/05 15:20:22;;;;;;;3.70;1.17;;;19.20;99.90;;;;;;5015156;28;20201;-83
2023/10/05 15:22:52;;;;;;;2.38;0.90;;;19.10;99.90;;;;;;5014664;28;20221;-79
2023/10/05 15:25:21;;;;;;;3.63;0.70;;;18.90;99.90;;;;;;5015558;28;20566;-84
2023/10/05 15:27:50;;;;;;;3.85;0.70;;;18.80;99.90;;;;;;5014599;28;20194;-83
2023/10/05 15:30:18;;;;;;;2.15;0.90;;;18.70;99.90;;;;;;5014065;28;20666;-83
2023/10/05 15:32:49;;;;;;;2.55;0.82;;;18.60;99.90;;;;;;5013964;28;20312;-80
2023/10/05 15:35:17;;;;;;;3.17;0.80;;;18.70;99.90;;;;;;5014194;28;20205;-75
2023/10/05 15:37:47;;;;;;;2.50;0.73;;;18.60;99.90;;;;;;5017120;28;20376;-73
2023/10/05 15:40:18;;;;;;;3.03;0.82;;;18.60;99.90;;;;;;5022668;28;20233;-81
2023/10/05 15:42:47;;;;;;;2.13;0.82;;;18.60;99.90;;;;;;5016597;28;20221;-77
2023/10/05 15:45:19;;;;;;;2.50;0.70;;;18.70;99.90;;;;;;5033420;28;20215;-82
2023/10/05 15:47:49;;;;;;;1.48;0.65;;;18.80;99.90;;;;;;5033518;28;20216;-80
2023/10/05 15:50:18;;;;;;;5.68;0.80;;;18.80;99.90;;;;;;5033595;28;20228;-81
2023/10/05 15:52:48;;;;;;;3.03;0.70;;;18.90;99.90;;;;;;5033183;28;20598;-83
2023/10/05 15:55:16;;;;;;;3.15;0.70;;;18.80;99.90;;;;;;5033461;28;20259;-80
2023/10/05 15:57:47;;;;;;;1.92;0.57;;;18.80;99.90;;;;;;5033126;28;20767;-83
2023/10/05 16:00:18;;;;;;;3.20;1.30;;;18.70;99.90;;;;;;5015482;28;20295;-80
2023/10/05 16:02:49;;;;;;;4.75;1.27;;;18.60;99.90;;;;;;5033346;28;20224;-76
2023/10/05 16:05:17;;;;;;;1.27;0.60;;;18.50;99.90;;;;;;5033265;28;20247;-82
2023/10/05 16:07:46;;;;;;;3.78;0.88;;;18.50;99.90;;;;;;5033621;28;20201;-78
2023/10/05 16:10:14;;;;;;;4.90;0.90;;;18.40;99.90;;;;;;5033195;28;20261;-84
2023/10/05 16:12:41;;;;;;;2.38;0.75;;;18.40;99.90;;;;;;5033611;28;20618;-79
2023/10/05 16:15:09;;;;;;;1.27;0.70;;;18.40;99.90;;;;;;5033823;28;20233;-80
2023/10/05 16:17:37;;;;;;;1.52;0.63;;;18.30;99.90;;;;;;5033818;28;20212;-83
2023/10/05 16:20:08;;;;;;;6.35;0.80;;;18.30;99.90;;;;;;5039222;28;20247;-75
2023/10/05 16:22:37;;;;;;;2.63;0.95;;;18.30;99.90;;;;;;5037483;28;20224;-82
2023/10/05 16:25:10;;;;;;;1.25;0.60;;;18.10;99.90;;;;;;5037752;28;20209;-80
2023/10/05 16:27:38;;;;;;;3.65;0.70;;;18.00;99.90;;;;;;5037727;28;20296;-72
2023/10/05 16:30:09;;;;;;;5.32;0.95;;;18.00;99.90;;;;;;5037698;28;20699;-83
2023/10/05 16:32:38;;;;;;;4.32;0.75;;;17.90;99.90;;;;;;5037242;28;20221;-82
2023/10/05 16:35:07;;;;;;;2.00;0.88;;;17.90;99.90;;;;;;5036935;28;20777;-83
2023/10/05 16:37:37;;;;;;;3.13;0.80;;;17.80;99.90;;;;;;5036677;28;20236;-75
2023/10/05 16:40:06;;;;;;;2.35;0.80;;;17.70;99.90;;;;;;5036723;28;20201;-76
2023/10/05 16:42:36;;;;;;;1.17;0.65;;;17.60;99.90;;;;;;5036410;28;20585;-78
2023/10/05 16:45:04;;;;;;;3.43;0.67;;;17.50;99.90;;;;;;5036875;28;20569;-81
2023/10/05 16:47:31;;;;;;;3.03;1.05;;;17.40;99.90;;;;;;5036861;28;20213;-78
2023/10/05 16:49:58;;;;;;;1.98;0.80;;;17.30;99.90;;;;;;5036050;28;20299;-82
2023/10/05 16:52:26;;;;;;;3.10;1.02;;;17.30;99.90;;;;;;5036151;28;20263;-84
2023/10/05 16:54:54;;;;;;;2.40;0.70;;;17.30;99.90;;;;;;5035469;28;20783;-83
2023/10/05 16:57:22;;;;;;;2.43;1.20;;;17.10;99.90;;;;;;5035408;28;20327;-83
2023/10/05 16:59:49;;;;;;;3.60;1.00;;;17.10;99.90;;;;;;5036199;28;20223;-81
2023/10/05 17:02:17;;;;;;;2.80;0.90;;;17.00;99.90;;;;;;5036093;28;20305;-83
2023/10/05 17:04:44;;;;;;;2.17;0.90;;;16.90;99.90;;;;;;5037155;28;20303;-84
2023/10/05 17:07:11;;;;;;;3.10;1.00;;;16.80;99.90;;;;;;5036367;28;20230;-82
2023/10/05 17:09:39;;;;;;;4.53;1.40;;;16.70;99.90;;;;;;5036175;28;20241;-80
2023/10/05 17:12:09;;;;;;;5.97;1.83;;;16.50;99.90;;;;;;5036475;28;20225;-73
2023/10/05 17:14:37;;;;;;;1.83;1.07;;;16.50;99.90;;;;;;5036904;28;20232;-78
2023/10/05 17:17:04;;;;;;;3.50;1.33;;;16.40;99.90;;;;;;5036501;28;20216;-83
2023/10/05 17:19:32;;;;;;;2.50;0.90;;;16.40;99.90;;;;;;5036594;28;20267;-73
2023/10/05 17:21:59;;;;;;;1.77;0.87;;;16.30;99.90;;;;;;5035867;28;20727;-79
2023/10/05 17:24:26;;;;;;;2.40;1.00;;;16.20;99.90;;;;;;5036088;28;20527;-74
2023/10/05 17:26:54;;;;;;;1.97;0.80;;;16.20;99.90;;;;;;5036036;28;20228;-70
2023/10/05 17:29:23;;;;;;;3.20;0.90;;;16.10;99.90;;;;;;5034518;28;20201;-70
2023/10/05 17:31:49;;;;;;;3.43;1.13;;;16.00;99.90;;;;;;5034944;28;20236;-77
2023/10/05 17:34:16;;;;;;;3.53;1.00;;;16.00;99.90;;;;;;5035641;28;20348;-70
2023/10/05 17:36:43;;;;;;;2.10;0.93;;;15.90;99.90;;;;;;5035537;28;20236;-70
2023/10/05 17:39:10;;;;;;;2.77;0.90;;;16.00;99.90;;;;;;5035463;28;20247;-71
2023/10/05 17:41:37;;;;;;;2.07;0.93;;;16.00;99.90;;;;;;5035847;28;20295;-70
2023/10/05 17:44:05;;;;;;;2.23;0.90;;;16.00;99.90;;;;;;5035518;28;20236;-71
2023/10/05 17:46:32;;;;;;;3.40;0.90;;;16.00;99.90;;;;;;5035467;28;20292;-75
2023/10/05 17:48:59;;;;;;;2.63;0.80;;;16.00;99.90;;;;;;5035430;28;20251;-72
2023/10/05 17:51:28;;;;;;;2.73;1.27;;;16.00;99.90;;;;;;5035447;28;20247;-83
2023/10/05 17:53:55;;;;;;;2.10;0.73;;;16.00;99.90;;;;;;5036055;28;20673;-79
2023/10/05 17:56:22;;;;;;;3.57;0.90;;;15.90;99.90;;;;;;5034985;28;20263;-80
2023/10/05 17:58:49;;;;;;;2.00;0.77;;;15.90;99.90;;;;;;5035253;28;20236;-74